Time;durP1;ratioP1;P1;durP2;ratioP2;P2;SDS_P1;SDS_P2;PMS_P1;PMS_P2;Temp;Humidity;BMP_temperature;BMP_pressure;BME280_temperature;BME280_humidity;BME280_pressure;Samples;Min_cycle;Max_cycle;Signal;HPM_P1;HPM_P2
2021/12/09 00:01:16;;;;;;;10.45;3.75;;;;;;;-6.87;65.90;99931.56;4956027;28;20549;-61
2021/12/09 00:03:43;;;;;;;8.18;3.65;;;;;;;-6.85;66.00;99941.09;4955568;28;20541;-62
2021/12/09 00:06:12;;;;;;;7.63;3.28;;;;;;;-6.81;65.73;99939.63;4972619;28;20125;-61
2021/12/09 00:08:41;;;;;;;11.25;3.88;;;;;;;-6.87;66.62;99943.19;4970910;28;20054;-57
2021/12/09 00:11:08;;;;;;;13.55;4.03;;;;;;;-6.81;65.67;99947.75;4973023;28;20400;-59
2021/12/09 00:13:36;;;;;;;7.85;3.70;;;;;;;-6.75;66.15;99941.47;4970954;28;20058;-62
2021/12/09 00:16:03;;;;;;;9.63;4.03;;;;;;;-6.70;66.63;99933.56;4970694;28;20042;-62
2021/12/09 00:18:30;;;;;;;8.52;3.85;;;;;;;-6.74;65.92;99926.94;4971598;28;20082;-64
2021/12/09 00:20:57;;;;;;;8.50;3.42;;;;;;;-6.83;66.58;99928.22;4971849;28;20137;-63
2021/12/09 00:23:24;;;;;;;8.82;3.58;;;;;;;-6.99;66.19;99923.25;4956745;28;20058;-63
2021/12/09 00:25:51;;;;;;;7.32;3.67;;;;;;;-7.03;66.69;99924.72;4972390;28;20053;-59
2021/12/09 00:28:18;;;;;;;6.28;3.13;;;;;;;-7.06;67.09;99927.00;4973131;28;20078;-62
2021/12/09 00:30:45;;;;;;;7.88;2.85;;;;;;;-7.06;66.82;99933.25;4971933;28;20414;-56
2021/12/09 00:33:15;;;;;;;9.45;4.10;;;;;;;-7.00;66.62;99916.19;4955999;28;20133;-60
2021/12/09 00:35:47;;;;;;;13.00;4.65;;;;;;;-6.91;66.03;99928.44;4970580;28;20081;-59
2021/12/09 00:41:11;;;;;;;8.90;3.28;;;;;;;-6.83;66.23;99939.03;4955391;28;20050;-61
2021/12/09 00:43:38;;;;;;;7.03;3.55;;;;;;;-6.81;66.74;99931.50;4970192;28;20050;-62
2021/12/09 00:46:06;;;;;;;7.15;3.80;;;;;;;-6.88;66.27;99925.31;4972254;28;20133;-62
2021/12/09 00:48:34;;;;;;;9.52;4.45;;;;;;;-6.83;66.06;99928.22;4970788;28;20063;-59
2021/12/09 00:51:03;;;;;;;9.27;3.47;;;;;;;-6.78;65.61;99931.09;4971991;28;20062;-62
2021/12/09 00:53:30;;;;;;;8.65;3.70;;;;;;;-6.74;65.91;99942.31;4971523;28;20137;-60
2021/12/09 00:55:58;;;;;;;10.27;4.00;;;;;;;-6.82;67.04;99926.31;4970740;28;20053;-61
2021/12/09 00:58:28;;;;;;;7.88;3.53;;;;;;;-6.87;65.94;99921.53;4971972;28;20097;-61
2021/12/09 01:00:55;;;;;;;7.80;3.58;;;;;;;-6.81;67.21;99931.50;4970249;28;20055;-60
2021/12/09 01:03:22;;;;;;;9.07;3.42;;;;;;;-6.72;66.59;99930.25;4971648;28;20141;-57
2021/12/09 01:05:49;;;;;;;12.50;4.93;;;;;;;-6.66;66.00;99928.59;4969577;28;20382;-61
2021/12/09 01:08:38;;;;;;;7.05;2.83;;;;;;;-6.63;66.35;99928.97;4970236;28;20060;-63
2021/12/09 01:11:07;;;;;;;10.80;3.95;;;;;;;-6.68;66.57;99942.31;4971939;28;20083;-61
2021/12/09 01:13:35;;;;;;;8.38;3.38;;;;;;;-6.61;66.79;99937.72;4971150;28;20536;-61
2021/12/09 01:16:03;;;;;;;5.80;3.15;;;;;;;-6.65;65.82;99932.94;4954773;28;20046;-62
2021/12/09 01:18:36;;;;;;;4.80;2.45;;;;;;;-6.70;66.84;99925.47;4972133;28;20055;-58
2021/12/09 01:21:05;;;;;;;7.20;3.33;;;;;;;-6.74;66.54;99948.56;4972222;28;20514;-61
2021/12/09 01:23:32;;;;;;;8.65;3.90;;;;;;;-6.65;66.60;99957.28;4971244;28;20047;-61
2021/12/09 01:26:02;;;;;;;9.95;3.88;;;;;;;-6.55;66.63;99957.66;4969745;28;20503;-59
2021/12/09 01:28:36;;;;;;;8.23;3.22;;;;;;;-6.57;66.31;99949.75;4972000;28;20085;-61
2021/12/09 01:31:04;;;;;;;8.93;3.60;;;;;;;-6.64;66.75;99943.53;4972455;28;20137;-60
2021/12/09 01:33:33;;;;;;;7.47;3.65;;;;;;;-6.55;66.44;99949.53;4971289;28;20050;-63
2021/12/09 01:36:01;;;;;;;10.65;4.28;;;;;;;-6.54;66.67;99949.31;4969669;28;20050;-61
2021/12/09 01:38:30;;;;;;;5.63;3.08;;;;;;;-6.55;65.81;99953.09;4971808;28;20138;-65
2021/12/09 01:40:58;;;;;;;8.80;3.25;;;;;;;-6.47;65.73;99944.75;4971128;28;20586;-65
2021/12/09 01:43:26;;;;;;;7.13;3.28;;;;;;;-6.44;66.16;99938.91;4971382;28;20051;-65
2021/12/09 01:46:09;;;;;;;11.55;4.00;;;;;;;-6.44;66.22;99955.13;4968908;28;20089;-65
2021/12/09 01:48:37;;;;;;;13.10;4.55;;;;;;;-6.40;65.94;99945.53;4954436;28;20051;-61
2021/12/09 01:51:05;;;;;;;9.85;3.72;;;;;;;-6.31;66.54;99944.25;4972437;28;20057;-65
2021/12/09 01:53:32;;;;;;;7.50;3.20;;;;;;;-6.34;65.61;99950.09;4971221;28;20047;-66
2021/12/09 01:56:02;;;;;;;9.20;3.67;;;;;;;-6.37;65.92;99945.13;4969322;28;20057;-65
2021/12/09 01:58:29;;;;;;;9.00;3.50;;;;;;;-6.37;66.52;99950.53;4971216;28;20053;-65
2021/12/09 02:00:56;;;;;;;12.65;3.30;;;;;;;-6.32;65.76;99958.84;4971440;28;20054;-62
2021/12/09 02:03:24;;;;;;;9.07;4.45;;;;;;;-6.27;66.05;99952.78;4953936;29;20066;-62
2021/12/09 02:05:51;;;;;;;7.80;3.38;;;;;;;-6.26;65.47;99949.88;4953738;28;20055;-60
2021/12/09 02:08:19;;;;;;;12.20;3.70;;;;;;;-6.30;65.58;99945.94;4957210;28;20055;-53
2021/12/09 02:10:48;;;;;;;9.88;3.90;;;;;;;-6.31;65.56;99955.06;4953383;28;20493;-61
2021/12/09 02:13:16;;;;;;;7.72;3.63;;;;;;;-6.39;65.72;99949.94;4955391;28;20060;-57
2021/12/09 02:15:44;;;;;;;7.72;3.90;;;;;;;-6.38;65.65;99965.09;4953395;28;20535;-63
2021/12/09 02:18:13;;;;;;;10.60;4.47;;;;;;;-6.38;65.93;99959.69;4955509;28;20051;-60
2021/12/09 02:20:42;;;;;;;7.97;3.80;;;;;;;-6.49;65.40;99971.19;4953795;28;20060;-61
2021/12/09 02:23:12;;;;;;;8.80;3.25;;;;;;;-6.47;65.47;99970.97;4955507;28;20055;-61
2021/12/09 02:25:44;;;;;;;11.05;3.83;;;;;;;-6.40;66.05;99967.19;4953612;28;20051;-58
2021/12/09 02:28:15;;;;;;;7.03;3.13;;;;;;;-6.31;65.64;99967.81;4955218;28;20550;-64
2021/12/09 02:30:42;;;;;;;7.35;3.22;;;;;;;-6.37;65.71;99960.53;4954701;28;20150;-64
2021/12/09 02:33:10;;;;;;;9.60;4.10;;;;;;;-6.39;65.84;99974.28;4955662;28;20097;-57
2021/12/09 02:35:38;;;;;;;11.00;3.90;;;;;;;-6.39;64.71;99977.00;4953643;28;20067;-61
2021/12/09 02:38:07;;;;;;;12.88;3.63;;;;;;;-6.43;64.91;99977.59;4954935;28;20066;-58
2021/12/09 02:40:37;;;;;;;8.63;3.00;;;;;;;-6.39;65.79;99982.41;4953046;28;20114;-61
2021/12/09 02:43:07;;;;;;;7.47;3.50;;;;;;;-6.34;65.32;99982.56;4954783;28;20055;-59
2021/12/09 02:45:36;;;;;;;11.63;3.75;;;;;;;-6.37;65.27;99983.00;4954556;28;20147;-59
2021/12/09 02:48:03;;;;;;;7.63;3.35;;;;;;;-6.37;65.27;99972.16;4955084;28;20061;-62
2021/12/09 02:50:30;;;;;;;9.57;3.58;;;;;;;-6.38;65.72;99969.69;4953648;29;20060;-59
2021/12/09 02:52:57;;;;;;;8.27;3.13;;;;;;;-6.40;65.26;99980.72;4954756;28;20520;-61
2021/12/09 02:55:24;;;;;;;9.43;3.60;;;;;;;-6.45;65.57;99980.50;4954312;28;20114;-55
2021/12/09 02:57:52;;;;;;;11.27;4.10;;;;;;;-6.49;65.63;99983.84;4953453;28;20051;-58
2021/12/09 03:00:20;;;;;;;6.18;2.90;;;;;;;-6.50;65.34;99987.63;4954735;28;20055;-61
2021/12/09 03:02:47;;;;;;;10.18;3.55;;;;;;;-6.47;65.75;99988.03;4967760;28;20206;-57
2021/12/09 03:05:15;;;;;;;17.27;4.25;;;;;;;-6.47;65.07;99998.84;4973971;28;20086;-57
2021/12/09 03:07:43;;;;;;;7.88;3.22;;;;;;;-6.46;65.07;99995.09;4971875;28;20554;-57
2021/12/09 03:10:20;;;;;;;6.05;2.72;;;;;;;-6.45;65.74;100001.34;4974004;28;20050;-61
2021/12/09 03:12:50;;;;;;;6.35;2.92;;;;;;;-6.51;65.19;100004.91;4971494;28;20047;-59
2021/12/09 03:15:18;;;;;;;8.48;3.67;;;;;;;-6.54;65.06;100002.63;4973712;28;20057;-62
2021/12/09 03:17:47;;;;;;;9.27;3.58;;;;;;;-6.52;65.15;99995.09;4971432;28;20074;-59
2021/12/09 03:20:17;;;;;;;9.93;4.38;;;;;;;-6.46;64.87;100008.63;4974276;28;20062;-60
2021/12/09 03:22:45;;;;;;;10.52;3.53;;;;;;;-6.46;64.94;100014.03;4971529;28;20055;-58
2021/12/09 03:25:15;;;;;;;9.70;3.83;;;;;;;-6.48;64.95;100018.00;4973688;28;20142;-60
2021/12/09 03:27:42;;;;;;;8.57;3.97;;;;;;;-6.43;65.25;100018.19;4971217;28;20059;-60
2021/12/09 03:30:11;;;;;;;11.07;3.90;;;;;;;-6.37;65.20;100017.38;4973669;28;20391;-59
2021/12/09 03:32:39;;;;;;;9.67;3.90;;;;;;;-6.40;64.52;100015.91;4973159;28;20047;-61
2021/12/09 03:35:07;;;;;;;10.30;4.22;;;;;;;-6.46;64.51;100021.31;4973580;28;20054;-60
2021/12/09 03:37:37;;;;;;;8.32;4.25;;;;;;;-6.55;65.64;100023.44;4971357;28;20083;-61
2021/12/09 03:40:06;;;;;;;13.38;4.10;;;;;;;-6.56;64.98;100021.78;4973391;28;20057;-61
2021/12/09 03:42:34;;;;;;;8.13;3.83;;;;;;;-6.64;65.66;100024.69;4971039;28;20118;-56
2021/12/09 03:45:03;;;;;;;11.77;4.38;;;;;;;-6.65;64.93;100028.44;4973668;28;20142;-61
2021/12/09 03:47:30;;;;;;;9.32;3.63;;;;;;;-6.61;65.54;100026.13;4971419;28;20137;-62
2021/12/09 03:50:02;;;;;;;10.25;3.67;;;;;;;-6.64;65.45;100023.84;4973166;28;20141;-60
2021/12/09 03:52:29;;;;;;;8.30;4.00;;;;;;;-6.64;65.26;100029.25;4971322;28;20093;-60
2021/12/09 03:54:57;;;;;;;7.75;3.78;;;;;;;-6.55;64.74;100034.25;4973334;28;20149;-56
2021/12/09 03:57:24;;;;;;;9.85;3.70;;;;;;;-6.47;64.76;100046.72;4971484;28;20462;-59
2021/12/09 03:59:53;;;;;;;8.45;3.42;;;;;;;-6.47;64.44;100041.31;4973286;28;20485;-59
2021/12/09 04:02:20;;;;;;;13.38;4.05;;;;;;;-6.48;64.52;100045.06;4972147;28;20067;-60
2021/12/09 04:04:47;;;;;;;7.57;3.63;;;;;;;-6.46;64.51;100038.38;4973491;28;20089;-61
2021/12/09 04:07:14;;;;;;;9.18;4.32;;;;;;;-6.38;64.86;100037.34;4974760;28;20565;-62
2021/12/09 04:09:41;;;;;;;10.18;4.13;;;;;;;-6.38;64.97;100040.03;4972827;28;20053;-59
2021/12/09 04:12:09;;;;;;;12.82;4.45;;;;;;;-6.42;64.50;100039.66;4972544;28;20054;-63
2021/12/09 04:14:37;;;;;;;8.80;4.32;;;;;;;-6.55;64.36;100042.38;4970290;28;20054;-60
2021/12/09 04:17:04;;;;;;;12.27;3.60;;;;;;;-6.58;64.56;100033.81;4973002;28;20053;-59
2021/12/09 04:19:31;;;;;;;12.43;4.38;;;;;;;-6.60;64.24;100031.34;4972602;28;20081;-61
2021/12/09 04:21:58;;;;;;;10.85;4.38;;;;;;;-6.57;65.10;100041.72;4972479;28;20102;-62
2021/12/09 04:24:25;;;;;;;10.70;3.42;;;;;;;-6.53;65.17;100036.75;4970164;28;20150;-58
2021/12/09 04:26:53;;;;;;;10.18;4.07;;;;;;;-6.49;64.72;100032.56;4972360;28;20063;-57
2021/12/09 04:29:20;;;;;;;8.38;4.38;;;;;;;-6.51;65.00;100035.47;4970397;28;20070;-59
2021/12/09 04:31:49;;;;;;;12.27;3.92;;;;;;;-6.54;65.22;100035.91;4972382;28;20046;-60
2021/12/09 04:34:17;;;;;;;10.55;4.47;;;;;;;-6.47;64.56;100030.47;4970492;28;20498;-62
2021/12/09 04:36:44;;;;;;;11.07;4.57;;;;;;;-6.53;64.71;100034.88;4972149;28;20479;-61
2021/12/09 04:39:11;;;;;;;9.05;3.45;;;;;;;-6.44;64.69;100036.31;4970896;28;20138;-62
2021/12/09 04:41:44;;;;;;;9.52;4.10;;;;;;;-6.42;64.30;100034.25;4970754;28;20396;-58
2021/12/09 04:44:11;;;;;;;8.88;3.72;;;;;;;-6.34;64.26;100038.59;4970873;28;20051;-62
2021/12/09 04:46:38;;;;;;;8.23;4.20;;;;;;;-6.44;63.98;100041.72;4971486;28;20133;-63
2021/12/09 04:49:06;;;;;;;12.77;4.15;;;;;;;-6.43;64.26;100034.41;4971686;28;20428;-63
2021/12/09 04:51:35;;;;;;;10.35;3.90;;;;;;;-6.51;64.82;100034.66;4970868;28;20050;-59
2021/12/09 04:54:08;;;;;;;15.25;3.80;;;;;;;-6.61;64.97;100037.78;4972017;28;20447;-61
2021/12/09 04:56:35;;;;;;;12.75;3.92;;;;;;;-6.68;64.67;100039.69;4970738;28;20050;-61
2021/12/09 04:59:04;;;;;;;7.55;3.67;;;;;;;-6.69;64.76;100045.31;4972036;28;20089;-61
2021/12/09 05:01:32;;;;;;;7.00;3.53;;;;;;;-6.60;64.21;100047.56;4969335;28;20055;-62
2021/12/09 05:03:59;;;;;;;7.38;3.28;;;;;;;-6.56;64.40;100056.94;4972132;28;20054;-58
2021/12/09 05:06:29;;;;;;;9.43;4.18;;;;;;;-6.52;64.57;100054.63;4969964;28;20388;-59
2021/12/09 05:08:59;;;;;;;6.90;3.10;;;;;;;-6.46;64.89;100053.78;4974115;28;20089;-59
2021/12/09 05:11:47;;;;;;;9.95;3.97;;;;;;;-6.51;64.48;100056.31;4969394;28;20404;-61
2021/12/09 05:14:21;;;;;;;11.60;3.67;;;;;;;-6.51;64.77;100054.41;4970476;28;20141;-60
2021/12/09 05:16:52;;;;;;;7.90;3.28;;;;;;;-6.53;64.62;100055.69;4969879;28;20137;-63
2021/12/09 05:19:20;;;;;;;10.80;4.45;;;;;;;-6.52;64.81;100047.34;4969813;28;20047;-62
2021/12/09 05:21:48;;;;;;;7.05;3.47;;;;;;;-6.47;64.34;100052.97;4971625;28;20093;-60
2021/12/09 05:24:16;;;;;;;6.55;3.63;;;;;;;-6.41;64.97;100054.84;4970754;28;20055;-61
2021/12/09 05:26:49;;;;;;;12.63;4.47;;;;;;;-6.45;64.80;100055.47;4970636;28;20042;-61
2021/12/09 05:29:18;;;;;;;8.38;3.50;;;;;;;-6.41;64.40;100062.94;4970924;28;20051;-61
2021/12/09 05:34:31;;;;;;;9.80;3.88;;;;;;;-6.34;64.34;100063.75;4969647;28;20134;-61
2021/12/09 05:36:58;;;;;;;7.28;3.42;;;;;;;-6.47;64.54;100055.69;4971423;28;20533;-58
2021/12/09 05:39:25;;;;;;;9.43;3.88;;;;;;;-6.48;64.57;100054.00;4969316;28;20073;-60
2021/12/09 05:41:53;;;;;;;10.32;3.90;;;;;;;-6.45;64.64;100055.47;4971039;28;20529;-62
2021/12/09 05:44:21;;;;;;;8.88;3.97;;;;;;;-6.44;65.13;100055.25;4971356;28;20443;-60
2021/12/09 05:46:48;;;;;;;9.18;3.72;;;;;;;-6.38;64.17;100067.09;4969925;28;20113;-63
2021/12/09 05:49:15;;;;;;;7.22;3.35;;;;;;;-6.39;64.83;100069.00;4967375;28;20089;-62
2021/12/09 05:51:43;;;;;;;12.10;4.35;;;;;;;-6.38;64.90;100072.50;4968788;28;20514;-57
2021/12/09 05:54:11;;;;;;;10.57;3.00;;;;;;;-6.44;64.84;100068.78;4971419;28;20046;-62
2021/12/09 05:56:38;;;;;;;9.77;4.40;;;;;;;-6.51;64.90;100073.34;4970511;28;20050;-61
2021/12/09 05:59:07;;;;;;;8.70;3.72;;;;;;;-6.50;65.25;100075.03;4971606;28;20137;-61
2021/12/09 06:01:36;;;;;;;11.13;3.72;;;;;;;-6.49;65.01;100074.00;4968769;28;20063;-60
2021/12/09 06:04:03;;;;;;;12.43;4.22;;;;;;;-6.33;64.31;100073.56;4971566;28;20058;-61
2021/12/09 06:06:31;;;;;;;10.45;3.35;;;;;;;-6.31;64.61;100068.75;4968914;28;20051;-60
2021/12/09 06:08:58;;;;;;;11.38;3.97;;;;;;;-6.29;65.08;100077.50;4971013;28;20051;-60
2021/12/09 06:11:26;;;;;;;13.93;4.90;;;;;;;-6.28;64.77;100076.44;4969240;28;20055;-62
2021/12/09 06:13:53;;;;;;;10.77;4.25;;;;;;;-6.23;64.40;100087.47;4971183;28;20057;-61
2021/12/09 06:16:21;;;;;;;5.80;2.58;;;;;;;-6.18;65.04;100084.97;4970154;28;21120;-61
2021/12/09 06:18:49;;;;;;;10.38;3.58;;;;;;;-6.15;64.37;100078.31;4970837;28;20125;-58
2021/12/09 06:21:15;;;;;;;8.35;3.97;;;;;;;-6.28;64.51;100089.97;4968898;28;20145;-62
2021/12/09 06:23:42;;;;;;;11.90;3.30;;;;;;;-6.19;64.78;100099.53;4971165;28;20054;-62
2021/12/09 06:26:09;;;;;;;13.13;3.60;;;;;;;-6.09;64.35;100105.38;4969551;28;20098;-62
2021/12/09 06:28:38;;;;;;;11.95;3.90;;;;;;;-6.05;64.42;100100.34;4970617;28;20387;-56
2021/12/09 06:31:07;;;;;;;7.82;3.15;;;;;;;-6.01;64.43;100110.53;4970361;28;20046;-61
2021/12/09 06:33:34;;;;;;;9.13;3.53;;;;;;;-6.04;64.30;100119.06;4971915;28;20079;-59
2021/12/09 06:36:01;;;;;;;12.98;4.20;;;;;;;-6.03;64.72;100112.63;4957905;28;20052;-60
2021/12/09 06:38:28;;;;;;;6.82;3.28;;;;;;;-5.90;63.97;100119.88;4970359;28;20065;-57
2021/12/09 06:40:55;;;;;;;8.70;3.55;;;;;;;-5.82;63.68;100116.94;4970213;28;20078;-60
2021/12/09 06:43:23;;;;;;;8.30;4.10;;;;;;;-5.79;64.29;100122.75;4966795;28;20089;-60
2021/12/09 06:45:55;;;;;;;11.18;3.88;;;;;;;-5.75;63.93;100123.97;4955706;28;20746;-58
2021/12/09 06:48:22;;;;;;;6.05;3.15;;;;;;;-5.72;63.98;100123.53;4973225;28;20090;-60
2021/12/09 06:50:49;;;;;;;11.63;4.13;;;;;;;-5.74;63.84;100125.63;4973797;28;20533;-64
2021/12/09 06:53:16;;;;;;;6.40;3.17;;;;;;;-5.90;63.86;100126.13;4972788;28;20082;-60
2021/12/09 06:55:44;;;;;;;10.57;3.97;;;;;;;-6.03;63.91;100126.19;4973358;28;20473;-63
2021/12/09 06:58:11;;;;;;;8.07;3.58;;;;;;;-6.04;63.93;100137.22;4968850;28;20141;-60
2021/12/09 07:00:45;;;;;;;12.55;4.45;;;;;;;-6.02;64.42;100135.97;4973842;28;20436;-61
2021/12/09 07:03:16;;;;;;;8.00;4.00;;;;;;;-5.88;64.19;100134.03;4972178;28;20086;-61
2021/12/09 07:05:44;;;;;;;9.55;3.63;;;;;;;-5.77;63.61;100136.06;4975150;28;20105;-62
2021/12/09 07:08:12;;;;;;;10.45;4.40;;;;;;;-5.74;63.98;100141.06;4971764;28;20106;-62
2021/12/09 07:10:39;;;;;;;7.80;3.58;;;;;;;-5.56;63.81;100129.53;4973610;28;20042;-61
2021/12/09 07:13:07;;;;;;;10.15;3.80;;;;;;;-5.45;63.15;100142.41;4971478;28;20082;-62
2021/12/09 07:15:35;;;;;;;9.30;3.78;;;;;;;-5.41;63.33;100135.50;4971605;28;20085;-61
2021/12/09 07:18:02;;;;;;;13.23;4.50;;;;;;;-5.41;63.29;100143.63;4972852;28;20097;-62
2021/12/09 07:20:30;;;;;;;10.27;4.22;;;;;;;-5.36;63.52;100139.22;4972998;28;20069;-62
2021/12/09 07:23:00;;;;;;;;;;;;;;;-5.35;63.45;100134.63;4973639;28;20051;-61
2021/12/09 07:25:31;;;;;;;8.30;3.88;;;;;;;-5.37;63.14;100132.13;4973043;28;19926;-61
2021/12/09 07:27:58;;;;;;;7.78;3.85;;;;;;;-5.24;63.23;100147.53;4973311;28;20053;-60
2021/12/09 07:30:26;;;;;;;8.70;3.72;;;;;;;-5.23;63.55;100141.03;4974101;28;20043;-63
2021/12/09 07:32:53;;;;;;;6.75;3.50;;;;;;;-5.32;63.11;100150.47;4972908;28;20110;-61
2021/12/09 07:35:20;;;;;;;9.90;3.83;;;;;;;-5.29;63.40;100155.47;4971378;28;20054;-63
2021/12/09 07:37:47;;;;;;;9.02;3.97;;;;;;;-5.39;63.79;100150.50;4972764;28;20394;-60
2021/12/09 07:40:17;;;;;;;8.57;3.97;;;;;;;-5.42;63.51;100147.41;4971404;28;20117;-60
2021/12/09 07:42:45;;;;;;;7.05;3.33;;;;;;;-5.46;64.01;100152.41;4972959;28;20518;-59
2021/12/09 07:45:14;;;;;;;8.13;3.75;;;;;;;-5.43;63.73;100153.84;4954728;28;20078;-58
2021/12/09 07:47:43;;;;;;;10.25;4.20;;;;;;;-5.37;63.54;100158.41;4972324;28;20053;-59
2021/12/09 07:50:14;;;;;;;14.10;4.57;;;;;;;-5.25;64.01;100159.41;4971714;28;20046;-62
2021/12/09 07:52:47;;;;;;;9.50;4.13;;;;;;;-5.25;63.13;100157.53;4972922;28;20059;-61
2021/12/09 07:55:16;;;;;;;9.18;4.35;;;;;;;-5.14;62.65;100153.31;4970655;28;20146;-63
2021/12/09 07:57:43;;;;;;;14.05;4.97;;;;;;;-5.07;63.12;100159.53;4970958;28;20043;-61
2021/12/09 08:00:17;;;;;;;13.27;4.95;;;;;;;-4.98;63.07;100163.66;4970469;28;20463;-60
2021/12/09 08:02:45;;;;;;;10.55;3.95;;;;;;;-4.91;62.49;100164.44;4972497;28;20058;-59
2021/12/09 08:05:14;;;;;;;9.77;4.07;;;;;;;-5.01;62.76;100158.66;4954306;28;20114;-56
2021/12/09 08:07:41;;;;;;;10.57;4.40;;;;;;;-5.12;63.18;100167.47;4955570;28;20063;-59
2021/12/09 08:10:11;;;;;;;21.42;7.38;;;;;;;-5.13;63.59;100173.97;4969891;28;20087;-62
2021/12/09 08:12:39;;;;;;;11.38;4.88;;;;;;;-5.13;63.15;100176.69;4970988;28;20179;-61
2021/12/09 08:15:25;;;;;;;10.88;5.05;;;;;;;-5.09;63.42;100167.06;4970299;28;20046;-58
2021/12/09 08:18:01;;;;;;;10.40;4.22;;;;;;;-5.15;62.56;100170.63;4970274;28;20082;-62
2021/12/09 08:20:31;;;;;;;9.15;3.55;;;;;;;-5.13;63.07;100179.38;4970282;28;20055;-57
2021/12/09 08:22:58;;;;;;;7.63;3.77;;;;;;;-5.21;62.65;100174.19;4972001;28;20051;-60
2021/12/09 08:25:25;;;;;;;12.38;5.30;;;;;;;-5.44;62.61;100176.59;4970007;28;20129;-57
2021/12/09 08:27:52;;;;;;;11.07;4.22;;;;;;;-5.53;63.12;100175.16;4972299;28;20093;-62
2021/12/09 08:30:22;;;;;;;12.55;5.43;;;;;;;-5.65;63.39;100183.94;4970364;28;20047;-64
2021/12/09 08:33:09;;;;;;;10.60;4.63;;;;;;;-5.73;63.33;100186.91;4972008;28;20142;-61
2021/12/09 08:35:37;;;;;;;12.90;5.20;;;;;;;-5.71;63.43;100192.91;4971438;28;20146;-60
2021/12/09 08:38:06;;;;;;;8.20;4.55;;;;;;;-5.72;63.32;100198.56;4972561;28;20070;-59
2021/12/09 08:40:35;;;;;;;17.40;4.95;;;;;;;-5.68;63.17;100197.91;4970076;28;20133;-62
2021/12/09 08:43:02;;;;;;;11.95;4.97;;;;;;;-5.63;62.79;100203.53;4972001;28;20053;-61
2021/12/09 08:45:30;;;;;;;14.88;4.90;;;;;;;-5.73;63.26;100203.16;4969922;28;20065;-63
2021/12/09 08:47:57;;;;;;;14.90;5.10;;;;;;;-5.72;63.01;100198.56;4972329;28;20051;-62
2021/12/09 08:50:25;;;;;;;19.13;5.32;;;;;;;-5.83;63.28;100202.78;4970729;28;20054;-62
2021/12/09 08:52:53;;;;;;;11.63;5.10;;;;;;;-5.81;63.29;100207.94;4972317;28;20055;-64
2021/12/09 08:55:21;;;;;;;13.05;4.93;;;;;;;-5.80;62.97;100196.91;4969757;28;20055;-63
2021/12/09 08:57:49;;;;;;;13.25;5.57;;;;;;;-5.74;62.95;100195.25;4971528;28;20051;-61
2021/12/09 09:00:17;;;;;;;12.90;4.38;;;;;;;-5.24;61.79;100191.72;4969488;28;20075;-62
2021/12/09 09:02:46;;;;;;;14.20;5.10;;;;;;;-5.22;61.71;100192.34;4971569;28;20097;-61
2021/12/09 09:05:14;;;;;;;10.10;4.90;;;;;;;-4.97;61.59;100184.28;4969361;28;20069;-60
2021/12/09 09:07:44;;;;;;;9.52;4.45;;;;;;;-4.86;61.17;100197.19;4970432;28;20406;-58
2021/12/09 09:10:14;;;;;;;10.60;5.43;;;;;;;-4.74;61.08;100181.88;4969263;28;20053;-59
2021/12/09 09:12:41;;;;;;;12.02;5.05;;;;;;;-4.26;59.92;100185.69;4971677;28;20078;-58
2021/12/09 09:15:11;;;;;;;14.75;5.45;;;;;;;-4.24;60.39;100168.09;4971080;28;20150;-65
2021/12/09 09:17:45;;;;;;;23.23;5.45;;;;;;;-4.09;59.32;100181.34;4968789;28;20054;-61
2021/12/09 09:20:18;;;;;;;15.38;5.50;;;;;;;-4.14;60.43;100183.91;4972325;28;20091;-63
2021/12/09 09:22:46;;;;;;;12.23;5.20;;;;;;;-3.84;59.36;100176.72;4971379;28;20121;-62
2021/12/09 09:25:20;;;;;;;15.40;5.47;;;;;;;-3.64;59.35;100177.34;4969398;28;20788;-64
2021/12/09 09:27:49;;;;;;;15.75;5.60;;;;;;;-3.89;59.90;100182.00;4969510;28;20054;-63
2021/12/09 09:30:18;;;;;;;16.08;6.00;;;;;;;-3.95;60.22;100180.16;4971017;28;20133;-63
2021/12/09 09:32:49;;;;;;;126.75;31.08;;;;;;;-4.13;59.98;100180.97;4967003;28;20051;-62
2021/12/09 09:35:18;;;;;;;22.60;6.97;;;;;;;-4.31;60.07;100174.66;4952070;28;20129;-64
2021/12/09 09:37:46;;;;;;;19.42;4.93;;;;;;;-4.60;60.70;100176.13;4970226;28;20454;-64
2021/12/09 09:40:16;;;;;;;15.68;5.05;;;;;;;-4.74;61.36;100176.44;4969124;28;20042;-64
2021/12/09 09:45:14;;;;;;;17.17;5.47;;;;;;;-4.90;61.09;100176.94;4969367;28;20133;-62
2021/12/09 09:47:41;;;;;;;13.60;5.78;;;;;;;-5.00;61.32;100182.03;4970433;28;20455;-64
2021/12/09 09:50:10;;;;;;;12.90;4.45;;;;;;;-5.18;60.69;100187.31;4953226;28;20694;-63
2021/12/09 09:52:38;;;;;;;8.80;4.18;;;;;;;-5.22;61.13;100196.91;4969589;28;20129;-63
2021/12/09 09:55:10;;;;;;;10.48;4.57;;;;;;;-5.42;60.75;100193.47;4966676;28;20367;-63
2021/12/09 09:57:37;;;;;;;9.68;4.47;;;;;;;-5.44;60.85;100187.44;4968494;28;20042;-62
2021/12/09 10:00:10;;;;;;;14.73;5.88;;;;;;;-5.48;61.00;100188.91;4970800;28;20051;-60
2021/12/09 10:02:40;;;;;;;9.48;4.60;;;;;;;-5.47;61.03;100186.00;4969816;28;20058;-63
2021/12/09 10:05:08;;;;;;;16.77;5.50;;;;;;;-5.49;60.45;100176.38;4971119;28;20074;-64
2021/12/09 10:07:35;;;;;;;12.82;5.28;;;;;;;-5.60;60.89;100177.06;4968961;28;20110;-63
2021/12/09 10:10:08;;;;;;;14.50;5.55;;;;;;;-5.75;60.66;100170.03;4970078;28;20053;-63
2021/12/09 10:12:56;;;;;;;13.48;5.85;;;;;;;-5.70;60.70;100166.66;4968524;28;20113;-60
2021/12/09 10:15:45;;;;;;;11.75;4.70;;;;;;;-5.75;60.34;100180.84;4968958;28;20085;-62
2021/12/09 10:18:30;;;;;;;14.98;5.38;;;;;;;-5.70;60.40;100181.06;4970483;28;20043;-62
2021/12/09 10:20:57;;;;;;;11.35;4.57;;;;;;;-5.82;60.33;100182.78;4954269;28;20056;-63
2021/12/09 10:23:31;;;;;;;10.15;5.13;;;;;;;-5.94;60.08;100179.06;4974080;28;20550;-62
2021/12/09 10:26:16;;;;;;;10.55;4.65;;;;;;;-6.00;60.08;100179.06;4972671;28;20516;-60
2021/12/09 10:28:52;;;;;;;11.00;4.85;;;;;;;-5.99;60.15;100183.44;4972486;28;20418;-64
2021/12/09 10:31:29;;;;;;;17.30;6.10;;;;;;;-5.97;60.34;100190.31;4972885;28;20051;-62
2021/12/09 10:34:03;;;;;;;12.40;5.32;;;;;;;-6.02;60.06;100182.00;4972429;28;20139;-64
2021/12/09 10:36:55;;;;;;;13.15;5.30;;;;;;;-6.04;59.83;100175.94;4974311;28;20061;-59
2021/12/09 10:39:36;;;;;;;11.90;4.95;;;;;;;-5.96;59.87;100172.19;4955654;28;20069;-61
2021/12/09 10:42:15;;;;;;;;;;;;;;;-5.92;60.28;100184.28;4973986;28;20046;-60
2021/12/09 10:44:46;;;;;;;13.75;4.22;;;;;;;-5.96;60.17;100186.56;4973137;28;20408;-59
2021/12/09 10:47:55;;;;;;;11.80;5.68;;;;;;;-5.93;59.80;100190.72;4971560;28;20058;-61
2021/12/09 10:50:22;;;;;;;9.55;4.50;;;;;;;-5.89;59.93;100200.91;4968867;28;20135;-63
2021/12/09 10:52:57;;;;;;;13.70;5.13;;;;;;;-5.88;60.30;100199.88;4972360;28;20053;-62
2021/12/09 10:55:30;;;;;;;14.15;5.03;;;;;;;-5.83;59.88;100210.09;4974226;28;20418;-63
2021/12/09 10:58:18;;;;;;;9.35;4.97;;;;;;;-5.73;60.04;100207.72;4971330;28;20077;-60
2021/12/09 11:00:47;;;;;;;9.52;4.20;;;;;;;-5.75;60.24;100205.25;4971771;28;20134;-62
2021/12/09 11:03:18;;;;;;;12.07;4.75;;;;;;;-5.81;59.48;100210.66;4973255;28;20592;-63
2021/12/09 11:05:59;;;;;;;15.43;5.40;;;;;;;-5.80;60.16;100206.94;4971354;28;20047;-62
2021/12/09 11:08:35;;;;;;;12.07;4.43;;;;;;;-5.77;60.01;100214.63;4966377;28;20462;-60
2021/12/09 11:11:08;;;;;;;14.57;5.82;;;;;;;-5.78;59.94;100216.50;4954829;28;20043;-63
2021/12/09 11:13:42;;;;;;;9.85;5.00;;;;;;;-5.73;60.25;100222.13;4967253;28;20426;-65
2021/12/09 11:16:10;;;;;;;10.93;5.47;;;;;;;-5.73;59.77;100224.84;4971195;28;20059;-64
2021/12/09 11:18:43;;;;;;;8.70;3.83;;;;;;;-5.70;59.62;100219.00;4970525;28;20110;-64
2021/12/09 11:21:23;;;;;;;9.40;4.40;;;;;;;-5.78;59.80;100213.78;4971101;28;20496;-64
2021/12/09 11:24:03;;;;;;;10.18;4.65;;;;;;;-5.78;60.27;100215.66;4971791;28;20533;-64
2021/12/09 11:29:48;;;;;;;12.65;5.47;;;;;;;-5.83;59.76;100223.63;4971166;28;20059;-60
2021/12/09 11:32:36;;;;;;;4.60;2.47;;;;;;;-5.87;60.28;100231.34;4955999;28;20059;-63
2021/12/09 11:35:14;;;;;;;10.65;4.60;;;;;;;-5.93;60.06;100226.75;4974422;28;20093;-59
2021/12/09 11:37:59;;;;;;;15.55;4.93;;;;;;;-5.97;59.82;100228.22;4971012;28;20411;-62
2021/12/09 11:43:01;;;;;;;10.10;4.60;;;;;;;-6.07;60.58;100233.22;4970991;28;20499;-59
2021/12/09 11:45:34;;;;;;;12.98;5.10;;;;;;;-6.07;60.17;100249.47;4973045;28;20054;-57
2021/12/09 11:48:04;;;;;;;16.52;6.45;;;;;;;-6.05;60.55;100239.28;4971258;28;20097;-63
2021/12/09 11:50:34;;;;;;;12.87;5.37;;;;;;;-6.02;60.23;100246.97;4971979;28;20055;-62